AirNav   Pilot Hours Calculator
 
 1100 users online  

10VA Nashs Airport
Appomattox, Virginia, USA

GOING TO APPOMATTOX?


FAA INFORMATION EFFECTIVE 07 NOVEMBER 2019

Location

FAA Identifier: 10VA
Lat/Long: 37-23-10.5200N 078-48-47.0470W
37-23.175333N 078-48.784117W
37.3862556,-78.8130686
(estimated)
Elevation: 785 ft. / 239 m (estimated)
Variation: 07W (1985)
From city: 4 miles SW of APPOMATTOX, VA
Time zone: UTC -5 (UTC -4 during Daylight Saving Time)
Zip code: 24522

Airport Operations

Airport use: Private use. Permission required prior to landing
Activation date: 12/1983
Control tower: no
ARTCC: WASHINGTON CENTER
FSS: LEESBURG FLIGHT SERVICE STATION
Attendance: UNATNDD
Segmented circle: no

Airport Communications

WX AWOS-3 at 0V4 (18 nm SW): 120.575 (434-283-7826)
WX AWOS-3 at FVX (18 nm E): 132.725 (434-392-9718)
WX ASOS at LYH (19 nm W): PHONE 434-237-0749

Nearby radio navigation aids

VOR radial/distance  VOR name  Freq  Var
LYHr074/21.7LYNCHBURG VOR/DME109.2005W
MOLr161/33.9MONTEBELLO VOR/DME115.3005W

 
NDB name  Hdg/Dist  Freq  Var  ID
FARMVILLE285/18.036709WFVX ..-. ...- -..-
BLACKSTONE302/39.932609WBKT -... -.- -

Airport Services

Runway Information

Runway 5/23

Dimensions: 1800 x 20 ft. / 549 x 6 m
Surface: asphalt
RUNWAY 5  RUNWAY 23
Traffic pattern: leftleft

Airport Ownership and Management from official FAA records

Ownership: Privately-owned
Owner: JEANNE N AMOS & GRAY S NASH
174A CLOVER LANE
APPOMATTOX, VA 24522
Phone (434) 352-2366
Manager: JEANNE N AMOS & GRAY S NASH
174 A CLOVER LANE
APPOMATTOX, VA 24522
Phone 434-352-2366

Additional Remarks

FOR CD CTC ROANOKE APCH AT 540-563-1307.

Instrument Procedures

There are no published instrument procedures at 10VA.

Some nearby airports with instrument procedures:

W24 - Falwell Airport (15 nm W)
0V4 - Brookneal/Campbell County Airport (18 nm SW)
KFVX - Farmville Regional Airport (18 nm E)
KLYH - Lynchburg Regional Airport/Preston Glenn Field (19 nm W)
W90 - New London Airport (26 nm W)
 
Loc | Ops | Rwys | IFR | FBO | Links
Com | Nav | Svcs | Stats | Notes
Area around 10VA (Nashs Airport)
 
Road maps at: MapQuest Bing Google
 
Aerial photo
No photo
 
Sectional chart

 
Airport distance calculator
Flying to Nashs Airport? Find the distance to fly.

From to 10VA

Sunrise and sunset
Times for 11-Nov-2019
 Local
(UTC-5)
 Zulu
(UTC)
Morning civil twilight06:2411:24
Sunrise06:5111:51
Sunset17:0722:07
Evening civil twilight17:3522:35

Current date and time
Zulu (UTC)  11-Nov-2019 22:45:52
Local (UTC-5)  11-Nov-2019 17:45:52
 
METAR
K0V4 
18nm SW 
112235Z AUTO 19006KT 10SM CLR 17/05 A2993 RMK AO1 T01660053
KLYH 
19nm W 
112154Z 20011KT 10SM CLR 17/03 A2993 RMK AO2 SLP136 T01670033
KFVX 
19nm E 
112235Z AUTO 19005KT 10SM CLR 16/05 A2992 RMK AO2 T01560045
TAF
KLYH 
19nm W 
111730Z 1118/1218 19006KT P6SM FEW250 FM120400 22007KT P6SM BKN120 FM120900 23007KT P6SM -SHRA OVC060 TEMPO 1209/1212 4SM -SHRA OVC035 FM121200 28010G20KT P6SM OVC035 TEMPO 1212/1215 -SHRASN FM121600 31014G26KT P6SM BKN040
NOTAMs
Click for the latest NOTAMs
NOTAMs are issued by the DoD/FAA and will open in a separate window not controlled by AirNav.

 

 
 

Would you like to see your business listed on this page?

 If your business provides an interesting product or service to pilots, flight crews, aircraft, or users of the Nashs Airport, you should consider listing it here.  To start the listing process, click on the button below
 
Add a business
 

Other Pages about Nashs Airport

Update a link
 
Copyright © AirNav, LLC. All rights reserved. Privacy Policy  Contact